Time;durP1;ratioP1;P1;durP2;ratioP2;P2;SDS_P1;SDS_P2;PMS_P1;PMS_P2;Temp;Humidity;BMP_temperature;BMP_pressure;BME280_temperature;BME280_humidity;BME280_pressure;Samples;Min_cycle;Max_cycle;Signal;HPM_P1;HPM_P2
2022/05/21 00:07:52;;;;;;;5.47;2.60;;;;;;;16.20;100.00;100886.69;21068799;28;20044;-67
2022/05/21 00:17:56;;;;;;;7.55;3.03;;;;;;;16.08;100.00;100901.97;21068163;28;20161;-68
2022/05/21 00:27:57;;;;;;;4.38;2.40;;;;;;;15.93;100.00;100917.44;21067761;28;20492;-69
2022/05/21 00:37:59;;;;;;;6.70;2.55;;;;;;;15.88;100.00;100931.63;21066803;28;20505;-67
2022/05/21 00:48:01;;;;;;;5.22;2.70;;;;;;;15.68;100.00;100943.69;21075951;23;20041;-74
2022/05/21 01:08:38;;;;;;;8.02;2.33;;;;;;;15.29;100.00;100962.31;20960644;28;20046;-72
2022/05/21 01:18:39;;;;;;;4.90;2.50;;;;;;;15.14;100.00;100974.97;20985046;28;20048;-72
2022/05/21 01:28:41;;;;;;;5.10;2.28;;;;;;;14.94;100.00;100989.53;20984331;28;20045;-70
2022/05/21 01:38:45;;;;;;;4.82;2.00;;;;;;;14.74;100.00;100995.28;20983686;28;20437;-72
2022/05/21 01:48:47;;;;;;;4.80;2.30;;;;;;;14.63;100.00;101022.78;20996844;28;20048;-71
2022/05/21 01:58:49;;;;;;;4.25;2.47;;;;;;;14.52;100.00;101037.97;20993958;28;20143;-72
2022/05/21 02:08:50;;;;;;;6.88;2.85;;;;;;;14.25;100.00;101038.50;20992445;28;20052;-70
2022/05/21 02:18:51;;;;;;;7.47;3.10;;;;;;;13.85;100.00;101044.56;20991685;28;20110;-72
2022/05/21 02:28:53;;;;;;;8.55;3.80;;;;;;;13.68;100.00;101057.16;20991650;28;20040;-71
2022/05/21 02:49:15;;;;;;;8.07;4.13;;;;;;;13.47;100.00;101075.06;20954739;28;1037628;-71
2022/05/21 02:59:17;;;;;;;9.07;3.47;;;;;;;13.41;100.00;101075.16;20993565;28;20428;-71
2022/05/21 03:19:39;;;;;;;5.20;3.03;;;;;;;13.28;100.00;101074.50;20984413;28;20157;-73
2022/05/21 03:29:41;;;;;;;7.93;3.83;;;;;;;13.26;100.00;101094.69;20991745;28;20636;-71
2022/05/21 03:39:42;;;;;;;8.00;3.90;;;;;;;13.19;100.00;101095.66;20990337;28;20052;-72
2022/05/21 03:49:44;;;;;;;9.88;4.60;;;;;;;13.23;100.00;101100.00;20989877;28;20045;-72
2022/05/21 03:59:45;;;;;;;7.68;4.00;;;;;;;13.12;100.00;101103.63;20989384;28;20064;-72
2022/05/21 04:09:49;;;;;;;9.48;5.57;;;;;;;13.06;100.00;101100.22;20951648;28;20079;-71
2022/05/21 04:19:50;;;;;;;8.75;5.85;;;;;;;13.16;100.00;101121.13;20905430;28;20146;-71
2022/05/21 04:29:52;;;;;;;9.80;6.43;;;;;;;13.43;100.00;101135.66;20904416;28;20094;-72
2022/05/21 04:39:53;;;;;;;12.02;6.95;;;;;;;13.74;100.00;101126.34;20902753;28;20049;-71
2022/05/21 04:49:55;;;;;;;11.25;6.72;;;;;;;14.16;100.00;101122.97;20902730;28;20045;-71
2022/05/21 04:59:56;;;;;;;10.18;6.85;;;;;;;14.15;100.00;101126.50;20902608;28;20490;-72
2022/05/21 05:09:58;;;;;;;11.45;7.28;;;;;;;14.47;100.00;101124.13;20899132;28;20045;-71
2022/05/21 05:20:01;;;;;;;8.80;6.38;;;;;;;14.59;100.00;101133.56;20900243;28;20513;-71
2022/05/21 05:30:02;;;;;;;9.40;6.00;;;;;;;14.80;100.00;101126.97;20900656;28;20048;-69
2022/05/21 05:40:06;;;;;;;9.52;4.88;;;;;;;14.77;100.00;101145.50;20900055;28;20063;-71
2022/05/21 05:50:08;;;;;;;8.83;5.07;;;;;;;14.77;100.00;101150.78;20900762;28;20459;-72
2022/05/21 06:00:10;;;;;;;8.43;4.22;;;;;;;15.04;100.00;101144.00;20899223;28;20045;-72
2022/05/21 06:10:15;;;;;;;9.80;4.72;;;;;;;15.39;100.00;101133.53;20899566;28;20115;-73
2022/05/21 06:20:18;;;;;;;9.65;4.63;;;;;;;15.96;97.01;101140.06;20899034;28;20053;-71
2022/05/21 06:30:23;;;;;;;13.40;4.53;;;;;;;15.79;94.44;101147.56;20905748;28;20045;-73
2022/05/21 06:40:25;;;;;;;9.63;3.20;;;;;;;15.45;93.39;101164.19;20912506;28;20048;-73
2022/05/21 06:50:27;;;;;;;7.97;2.55;;;;;;;15.28;92.53;101155.78;21007990;22;20059;-69
2022/05/21 07:00:29;;;;;;;6.93;2.75;;;;;;;15.65;91.01;101145.25;21075640;28;20113;-69
2022/05/21 07:10:30;;;;;;;5.43;2.40;;;;;;;15.58;88.21;101154.22;21015888;28;20048;-68
2022/05/21 07:20:32;;;;;;;6.40;2.63;;;;;;;15.97;87.45;101151.50;21049163;28;20539;-68
2022/05/21 07:30:34;;;;;;;6.90;2.13;;;;;;;16.34;84.34;101149.63;20982699;28;20041;-68
2022/05/21 07:40:36;;;;;;;8.75;1.63;;;;;;;16.86;80.26;101144.63;20990410;28;20044;-68
2022/05/21 07:50:40;;;;;;;5.50;1.70;;;;;;;16.96;77.41;101140.81;21008686;28;20052;-68
2022/05/21 08:00:42;;;;;;;5.65;2.13;;;;;;;17.00;74.89;101137.13;20992392;28;20040;-67
2022/05/21 08:10:45;;;;;;;4.55;1.60;;;;;;;17.73;75.71;101143.66;21000147;28;20044;-68
2022/05/21 08:20:48;;;;;;;6.68;1.13;;;;;;;17.89;70.64;101152.84;21061747;28;20056;-68
2022/05/21 08:30:50;;;;;;;4.75;1.00;;;;;;;18.18;69.96;101147.41;21059336;28;20093;-68
2022/05/21 08:40:55;;;;;;;5.38;1.10;;;;;;;18.58;66.29;101145.97;21059960;28;20120;-68
2022/05/21 08:51:00;;;;;;;7.18;1.25;;;;;;;18.25;68.47;101131.28;21049544;28;20131;-67
2022/05/21 09:01:02;;;;;;;3.05;1.00;;;;;;;18.44;68.14;101122.63;20999284;28;20128;-68
2022/05/21 09:11:18;;;;;;;5.32;1.30;;;;;;;19.51;60.96;101095.47;20999309;28;20443;-66
2022/05/21 09:21:22;;;;;;;8.18;1.58;;;;;;;18.90;63.31;101096.16;20976320;28;20060;-67
2022/05/21 09:31:31;;;;;;;5.60;1.00;;;;;;;19.70;60.26;101086.69;20974150;28;20143;-72
2022/05/21 09:41:33;;;;;;;4.05;1.40;;;;;;;20.09;59.25;101083.25;20975048;28;20083;-67
2022/05/21 09:51:34;;;;;;;4.88;1.00;;;;;;;19.33;56.07;101081.16;20973885;28;20048;-67
2022/05/21 10:01:58;;;;;;;3.97;1.08;;;;;;;19.48;57.37;101064.59;20975981;28;20048;-67
2022/05/21 10:12:10;;;;;;;6.78;1.08;;;;;;;20.38;54.42;101052.66;21000204;28;20048;-68
2022/05/21 10:22:40;;;;;;;4.85;1.05;;;;;;;19.97;54.20;101054.53;21072769;28;20067;-68
2022/05/21 10:33:02;;;;;;;3.05;1.05;;;;;;;19.96;55.45;101039.50;21071389;28;20044;-67
2022/05/21 10:43:31;;;;;;;3.47;0.93;;;;;;;20.15;55.42;101031.56;21070749;28;20040;-67
2022/05/21 10:53:48;;;;;;;3.97;1.15;;;;;;;20.46;52.75;101020.41;21069837;28;20062;-67
2022/05/21 11:04:18;;;;;;;7.57;1.38;;;;;;;20.37;55.58;101018.16;21068766;28;20058;-67
2022/05/21 11:14:38;;;;;;;3.30;0.98;;;;;;;20.07;51.52;101029.25;21029628;28;20106;-67
2022/05/21 11:25:01;;;;;;;4.63;1.00;;;;;;;20.53;50.70;101005.91;20984082;28;20504;-67
2022/05/21 11:45:32;;;;;;;3.67;0.90;;;;;;;20.44;51.79;101001.84;20981957;28;20048;-67
2022/05/21 11:56:01;;;;;;;3.42;0.88;;;;;;;20.60;49.27;100991.38;20980987;28;20133;-67
2022/05/21 12:06:24;;;;;;;4.97;1.15;;;;;;;21.00;49.39;100973.44;20979444;28;20048;-67
2022/05/21 12:16:26;;;;;;;4.78;1.08;;;;;;;21.34;48.66;100969.97;21028173;28;20619;-67
2022/05/21 12:26:30;;;;;;;3.25;0.90;;;;;;;20.73;49.03;100976.53;21062178;28;20052;-67
2022/05/21 12:36:32;;;;;;;;;;;;;;;21.30;49.19;100962.19;21060480;28;20459;-67
2022/05/21 12:46:35;;;;;;;3.72;1.10;;;;;;;21.10;46.71;100955.22;21059872;28;20304;-68
2022/05/21 12:56:37;;;;;;;4.63;0.80;;;;;;;21.93;45.15;100946.44;21060201;28;20109;-67
2022/05/21 13:06:39;;;;;;;3.58;0.98;;;;;;;22.12;45.22;100935.66;21058051;28;20108;-68
2022/05/21 13:16:50;;;;;;;2.30;0.80;;;;;;;21.80;44.91;100918.69;21000764;28;20064;-68
2022/05/21 13:27:22;;;;;;;3.42;0.90;;;;;;;21.68;43.54;100910.44;20975169;28;20048;-68
2022/05/21 13:37:31;;;;;;;2.53;0.80;;;;;;;21.08;46.03;100904.72;20964792;28;20527;-68
2022/05/21 13:47:37;;;;;;;2.72;0.77;;;;;;;21.40;44.50;100888.88;20990170;28;20048;-68
2022/05/21 13:57:40;;;;;;;4.25;0.90;;;;;;;21.86;43.56;100881.06;20989100;28;20053;-68
2022/05/21 14:07:49;;;;;;;2.33;0.80;;;;;;;22.20;44.33;100864.94;20988297;28;20398;-68
2022/05/21 14:17:56;;;;;;;5.25;0.70;;;;;;;22.09;41.68;100864.66;21049462;28;20055;-67
2022/05/21 14:28:18;;;;;;;4.05;0.70;;;;;;;22.57;42.15;100845.94;21072056;28;20052;-68
2022/05/21 14:38:23;;;;;;;1.90;0.80;;;;;;;22.09;42.64;100829.97;21056110;28;20048;-68
2022/05/21 14:48:24;;;;;;;1.52;0.70;;;;;;;21.88;44.41;100815.19;21069842;28;20063;-68
2022/05/21 14:58:26;;;;;;;3.83;0.85;;;;;;;22.22;42.28;100806.16;21068615;28;20366;-67
2022/05/21 15:08:36;;;;;;;4.35;1.40;;;;;;;22.20;41.25;100789.38;21067252;28;20125;-68
2022/05/21 15:18:37;;;;;;;4.03;0.80;;;;;;;22.42;41.41;100771.19;20992585;28;20574;-68
2022/05/21 15:28:40;;;;;;;2.63;0.70;;;;;;;22.43;40.57;100777.38;20981877;28;20143;-68
2022/05/21 15:38:42;;;;;;;3.17;0.70;;;;;;;22.92;40.50;100761.09;20980798;28;20059;-68
2022/05/21 15:48:43;;;;;;;3.45;0.80;;;;;;;22.90;39.27;100752.31;20981529;28;20048;-68
2022/05/21 15:58:46;;;;;;;2.42;0.60;;;;;;;22.50;40.74;100738.69;20979011;28;20118;-68
2022/05/21 16:08:48;;;;;;;3.63;0.80;;;;;;;23.00;40.17;100742.81;20979285;28;20075;-68
2022/05/21 16:18:50;;;;;;;2.83;0.70;;;;;;;22.69;41.75;100717.94;21047149;28;20422;-68
2022/05/21 16:28:52;;;;;;;4.03;1.10;;;;;;;22.53;44.18;100714.50;21062189;28;20043;-68
2022/05/21 16:38:53;;;;;;;4.15;0.80;;;;;;;22.38;42.91;100702.94;21059145;28;20101;-68
2022/05/21 16:48:55;;;;;;;2.63;0.80;;;;;;;22.36;43.71;100706.63;21060355;28;20101;-67
2022/05/21 16:58:56;;;;;;;4.00;0.95;;;;;;;22.01;45.96;100710.41;21058615;28;20051;-68
2022/05/21 17:08:58;;;;;;;3.38;1.13;;;;;;;21.62;46.50;100705.56;21058516;28;20059;-67
2022/05/21 17:18:59;;;;;;;2.55;0.88;;;;;;;21.48;48.47;100705.50;20980936;28;20056;-67
2022/05/21 17:39:21;;;;;;;4.75;0.85;;;;;;;21.13;48.48;100683.47;20973955;28;20102;-67
2022/05/21 17:49:22;;;;;;;3.70;1.08;;;;;;;21.02;48.43;100676.91;20974307;28;20045;-67
2022/05/21 17:59:25;;;;;;;2.92;1.00;;;;;;;20.92;48.14;100664.19;20972706;28;20057;-67
2022/05/21 18:09:26;;;;;;;2.58;0.80;;;;;;;20.82;50.29;100652.31;20972080;28;20095;-67
2022/05/21 18:19:28;;;;;;;4.95;1.20;;;;;;;20.61;51.61;100665.84;21046603;28;20113;-67
2022/05/21 18:29:30;;;;;;;3.95;1.08;;;;;;;20.38;54.38;100666.16;21067803;28;20122;-67
2022/05/21 18:39:31;;;;;;;4.63;1.10;;;;;;;20.02;56.10;100661.78;21069186;28;20102;-67
2022/05/21 18:49:33;;;;;;;4.05;1.00;;;;;;;19.47;61.59;100664.50;21064827;28;20078;-67
2022/05/21 18:59:35;;;;;;;4.22;1.45;;;;;;;19.27;65.34;100664.59;21051292;22;20052;-79
2022/05/21 19:09:37;;;;;;;4.07;1.38;;;;;;;19.01;70.38;100661.34;21023329;28;20036;-79
2022/05/21 19:19:38;;;;;;;5.43;1.60;;;;;;;18.63;73.80;100655.09;21016845;28;20049;-76
2022/05/21 19:29:43;;;;;;;5.30;1.70;;;;;;;18.18;75.45;100664.16;21029782;28;20131;-77
2022/05/21 19:50:05;;;;;;;2.72;1.15;;;;;;;17.22;80.55;100682.16;21018885;28;20052;-79
2022/05/21 20:00:07;;;;;;;4.50;1.38;;;;;;;17.14;81.60;100685.09;21017782;28;20135;-77
2022/05/21 20:10:09;;;;;;;3.40;1.33;;;;;;;16.89;82.64;100689.59;20997836;28;20290;-78
2022/05/21 20:31:46;;;;;;;5.00;1.40;;;;;;;16.26;84.86;100688.31;20973375;28;20040;-77
2022/05/21 20:41:48;;;;;;;3.53;1.30;;;;;;;16.16;85.22;100690.41;21010983;28;20052;-78
2022/05/21 20:51:50;;;;;;;4.22;1.30;;;;;;;15.95;87.20;100696.41;21019023;28;20052;-79
2022/05/21 21:01:51;;;;;;;4.45;1.88;;;;;;;15.78;89.15;100694.31;21031590;28;20083;-78
2022/05/21 21:11:53;;;;;;;5.82;1.70;;;;;;;15.49;89.51;100696.09;20998268;28;20109;-79
2022/05/21 21:21:56;;;;;;;3.15;1.40;;;;;;;15.26;90.51;100698.56;20890867;28;20131;-79
2022/05/21 21:31:57;;;;;;;5.57;1.80;;;;;;;14.91;94.29;100699.63;20907135;28;20390;-79
2022/05/21 21:41:59;;;;;;;6.05;2.15;;;;;;;14.84;96.11;100691.84;20905903;28;20045;-78
2022/05/21 21:52:01;;;;;;;7.57;2.33;;;;;;;14.82;97.37;100691.06;20902694;28;20051;-77
2022/05/21 22:02:04;;;;;;;6.28;2.70;;;;;;;14.74;98.51;100700.94;20901119;28;20040;-76
2022/05/21 22:12:07;;;;;;;7.68;2.22;;;;;;;14.37;100.00;100694.03;21010090;28;20048;-79
2022/05/21 22:22:09;;;;;;;4.90;2.30;;;;;;;14.07;100.00;100698.28;20990182;28;20074;-76
2022/05/21 22:32:11;;;;;;;4.47;1.80;;;;;;;14.01;100.00;100685.28;21013761;28;20052;-78
2022/05/21 22:42:12;;;;;;;4.82;2.00;;;;;;;13.95;100.00;100659.13;21011451;28;20044;-77
2022/05/21 22:52:14;;;;;;;5.50;2.10;;;;;;;13.79;100.00;100649.88;21032923;28;20187;-78
2022/05/21 23:02:16;;;;;;;5.68;2.20;;;;;;;13.60;100.00;100645.06;21013254;28;20048;-79
2022/05/21 23:12:17;;;;;;;6.85;2.50;;;;;;;13.57;100.00;100655.69;21051625;22;20616;-72
2022/05/21 23:22:26;;;;;;;6.10;1.90;;;;;;;13.49;100.00;100652.34;21077290;28;20651;-73
2022/05/21 23:32:27;;;;;;;6.93;2.87;;;;;;;13.34;100.00;100644.81;21076064;28;20060;-71
2022/05/21 23:42:29;;;;;;;4.75;2.42;;;;;;;13.29;100.00;100654.59;21075237;28;20688;-71
2022/05/21 23:52:31;;;;;;;8.20;2.65;;;;;;;13.23;100.00;100633.72;21074832;28;20113;-72
